createdAt,value
2018-08-13T00:01:32.274Z,20.44
2018-08-13T00:04:00.382Z,20.38
2018-08-13T00:06:29.453Z,20.28
2018-08-13T00:08:57.671Z,20.17
2018-08-13T00:11:26.398Z,20.10
2018-08-13T00:13:54.697Z,20.03
2018-08-13T00:16:23.556Z,20.05
2018-08-13T00:18:51.794Z,20.12
2018-08-13T00:21:20.123Z,20.10
2018-08-13T00:23:48.512Z,20.24
2018-08-13T00:26:16.666Z,20.12
2018-08-13T00:28:45.139Z,20.13
2018-08-13T00:31:13.359Z,20.21
2018-08-13T00:33:42.214Z,20.25
2018-08-13T00:36:10.688Z,20.22
2018-08-13T00:38:39.263Z,20.09
2018-08-13T00:41:07.697Z,20.08
2018-08-13T00:43:36.141Z,20.04
2018-08-13T00:46:05.048Z,19.92
2018-08-13T00:48:33.244Z,19.91
2018-08-13T00:51:01.456Z,19.95
2018-08-13T00:53:30.047Z,19.86
2018-08-13T00:55:58.567Z,19.85
2018-08-13T00:58:26.866Z,19.77
2018-08-13T01:00:55.349Z,19.77
2018-08-13T01:03:23.780Z,19.75
2018-08-13T01:05:52.306Z,19.68
2018-08-13T01:08:20.818Z,19.60
2018-08-13T01:10:48.979Z,19.55
2018-08-13T01:13:17.136Z,19.48
2018-08-13T01:15:45.652Z,19.41
2018-08-13T01:18:13.825Z,19.44
2018-08-13T01:20:42.314Z,19.44
2018-08-13T01:23:10.568Z,19.47
2018-08-13T01:25:38.976Z,19.51
2018-08-13T01:28:07.488Z,19.51
2018-08-13T01:30:35.928Z,19.47
2018-08-13T01:33:04.416Z,19.47
2018-08-13T01:35:32.597Z,19.58
2018-08-13T01:38:00.785Z,19.63
2018-08-13T01:40:29.435Z,19.61
2018-08-13T01:42:57.716Z,19.50
2018-08-13T01:45:26.168Z,19.48
2018-08-13T01:47:54.409Z,19.42
2018-08-13T01:50:22.548Z,19.47
2018-08-13T01:52:51.028Z,19.46
2018-08-13T01:55:19.495Z,19.45
2018-08-13T01:57:47.656Z,19.47
2018-08-13T02:00:16.526Z,19.37
2018-08-13T02:02:44.677Z,19.30
2018-08-13T02:05:12.833Z,19.24
2018-08-13T02:07:41.929Z,19.20
2018-08-13T02:10:12.521Z,19.22
2018-08-13T02:12:41.204Z,19.23
2018-08-13T02:15:09.950Z,19.24
2018-08-13T02:17:38.722Z,19.29
2018-08-13T02:20:08.722Z,19.24
2018-08-13T02:22:37.722Z,19.19
2018-08-13T02:25:07.167Z,19.19
2018-08-13T02:27:35.636Z,19.10
2018-08-13T02:30:06.932Z,19.08
2018-08-13T02:32:35.464Z,19.03
2018-08-13T02:35:05.808Z,19.06
2018-08-13T02:37:34.421Z,19.06
2018-08-13T02:40:02.735Z,18.96
2018-08-13T02:42:30.904Z,18.96
2018-08-13T02:45:06.174Z,18.96
2018-08-13T02:47:34.360Z,19.04
2018-08-13T02:50:03.308Z,19.00
2018-08-13T02:52:31.508Z,19.00
2018-08-13T02:55:00.474Z,19.05
2018-08-13T02:57:28.904Z,19.07
2018-08-13T02:59:57.729Z,19.07
2018-08-13T03:02:26.192Z,18.98
2018-08-13T03:04:54.901Z,18.94
2018-08-13T03:07:23.685Z,18.91
2018-08-13T03:09:52.174Z,18.91
2018-08-13T03:12:20.659Z,18.92
2018-08-13T03:14:48.863Z,18.92
2018-08-13T03:17:30.403Z,18.88
2018-08-13T03:19:59.557Z,18.79
2018-08-13T03:22:28.876Z,18.78
2018-08-13T03:24:58.068Z,18.73
2018-08-13T03:27:26.449Z,18.68
2018-08-13T03:29:54.667Z,18.71
2018-08-13T03:32:29.699Z,18.66
2018-08-13T03:34:58.283Z,18.61
2018-08-13T03:37:26.870Z,18.58
2018-08-13T03:39:56.036Z,18.57
2018-08-13T03:42:25.107Z,18.58
2018-08-13T03:44:53.584Z,18.65
2018-08-13T03:47:21.769Z,18.66
2018-08-13T03:49:50.169Z,18.66
2018-08-13T03:52:18.641Z,18.69
2018-08-13T03:54:47.185Z,18.59
2018-08-13T03:57:15.357Z,18.54
2018-08-13T03:59:43.573Z,18.54
2018-08-13T04:02:11.782Z,18.50
2018-08-13T04:04:40.465Z,18.48
2018-08-13T04:07:08.698Z,18.47
2018-08-13T04:09:37.440Z,18.66
2018-08-13T04:12:06.082Z,18.58
2018-08-13T04:14:34.320Z,18.55
2018-08-13T04:17:03.068Z,18.48
2018-08-13T04:19:32.886Z,18.48
2018-08-13T04:22:01.729Z,18.56
2018-08-13T04:24:30.113Z,18.60
2018-08-13T04:26:59.281Z,18.53
2018-08-13T04:29:27.456Z,18.59
2018-08-13T04:31:55.944Z,18.67
2018-08-13T04:34:24.697Z,18.61
2018-08-13T04:36:52.868Z,18.56
2018-08-13T04:39:21.554Z,18.57
2018-08-13T04:41:49.763Z,18.56
2018-08-13T04:44:17.936Z,18.57
2018-08-13T04:46:47.464Z,18.63
2018-08-13T04:49:15.992Z,18.68
2018-08-13T04:51:44.474Z,18.83
2018-08-13T04:54:13.702Z,18.82
2018-08-13T04:56:41.977Z,18.90
2018-08-13T04:59:10.432Z,18.89
2018-08-13T05:01:38.634Z,19.02
2018-08-13T05:04:06.830Z,19.05
2018-08-13T05:06:35.281Z,19.04
2018-08-13T05:09:05.294Z,19.13
2018-08-13T05:11:33.748Z,19.21
2018-08-13T05:14:02.147Z,19.39
2018-08-13T05:16:30.367Z,19.78
2018-08-13T05:18:58.893Z,20.13
2018-08-13T05:21:27.129Z,20.51
2018-08-13T05:23:55.607Z,20.76
2018-08-13T05:26:23.793Z,21.03
2018-08-13T05:28:52.600Z,21.24
2018-08-13T05:31:21.260Z,21.40
2018-08-13T05:33:49.484Z,21.58
2018-08-13T05:36:18.521Z,21.62
2018-08-13T05:38:47.044Z,21.69
2018-08-13T05:41:15.294Z,21.80
2018-08-13T05:43:43.569Z,21.98
2018-08-13T05:46:12.073Z,21.99
2018-08-13T05:48:40.519Z,22.44
2018-08-13T05:51:08.724Z,22.66
2018-08-13T05:53:36.892Z,22.58
2018-08-13T05:56:05.082Z,22.56
2018-08-13T05:58:33.625Z,22.47
2018-08-13T06:01:02.153Z,22.35
2018-08-13T06:03:30.725Z,22.42
2018-08-13T06:05:58.919Z,22.49
2018-08-13T06:08:27.279Z,22.56
2018-08-13T06:10:55.759Z,22.66
2018-08-13T06:13:23.968Z,22.80
2018-08-13T06:15:52.446Z,22.81
2018-08-13T06:18:20.741Z,22.96
2018-08-13T06:20:49.388Z,23.22
2018-08-13T06:23:18.267Z,23.36
2018-08-13T06:25:46.447Z,23.64
2018-08-13T06:28:14.713Z,23.89
2018-08-13T06:30:42.933Z,24.06
2018-08-13T06:33:11.253Z,24.22
2018-08-13T06:35:39.454Z,24.26
2018-08-13T06:38:10.904Z,24.51
2018-08-13T06:40:39.106Z,24.58
2018-08-13T06:43:07.348Z,24.45
2018-08-13T06:45:35.546Z,24.27
2018-08-13T06:48:03.828Z,24.40
2018-08-13T06:50:32.904Z,24.18
2018-08-13T06:53:01.098Z,24.03
2018-08-13T06:55:29.705Z,24.17
2018-08-13T06:57:57.942Z,24.50
2018-08-13T07:00:26.426Z,24.69
2018-08-13T07:02:54.591Z,25.14
2018-08-13T07:05:22.867Z,25.38
2018-08-13T07:07:51.361Z,25.60
2018-08-13T07:10:19.647Z,25.57
2018-08-13T07:12:47.928Z,25.63
2018-08-13T07:15:16.636Z,25.60
2018-08-13T07:17:44.914Z,25.92
2018-08-13T07:20:16.205Z,25.90
2018-08-13T07:22:44.716Z,26.18
2018-08-13T07:25:13.301Z,26.38
2018-08-13T07:27:42.009Z,26.05
2018-08-13T07:30:12.588Z,25.75
2018-08-13T07:32:41.158Z,25.70
2018-08-13T07:35:09.694Z,25.60
2018-08-13T07:37:38.261Z,25.63
2018-08-13T07:40:13.220Z,25.42
2018-08-13T07:42:41.745Z,25.45
2018-08-13T07:45:10.344Z,25.46
2018-08-13T07:47:38.552Z,25.27
2018-08-13T07:50:09.889Z,25.39
2018-08-13T07:52:38.120Z,25.23
2018-08-13T07:55:06.544Z,25.08
2018-08-13T07:57:34.779Z,25.19
2018-08-13T08:00:03.147Z,25.16
2018-08-13T08:02:31.749Z,25.18
2018-08-13T08:04:59.942Z,25.18
2018-08-13T08:07:28.355Z,25.14
2018-08-13T08:09:57.005Z,25.24
2018-08-13T08:12:25.585Z,25.46
2018-08-13T08:14:53.800Z,25.45
2018-08-13T08:17:22.531Z,25.44
2018-08-13T08:19:50.733Z,25.47
2018-08-13T08:22:18.982Z,25.23
2018-08-13T08:24:48.575Z,24.84
2018-08-13T08:27:18.007Z,24.44
2018-08-13T08:29:46.240Z,24.21
2018-08-13T08:32:14.517Z,23.96
2018-08-13T08:34:43.173Z,23.86
2018-08-13T08:37:11.710Z,23.67
2018-08-13T08:39:42.717Z,23.48
2018-08-13T08:42:11.220Z,23.51
2018-08-13T08:44:39.833Z,23.40
2018-08-13T08:47:08.029Z,23.45
2018-08-13T08:49:36.771Z,23.52
2018-08-13T08:52:05.120Z,23.52
2018-08-13T08:54:34.142Z,23.46
2018-08-13T08:57:02.628Z,23.56
2018-08-13T08:59:30.852Z,23.74
2018-08-13T09:01:59.429Z,23.68
2018-08-13T09:04:28.217Z,23.52
2018-08-13T09:06:56.858Z,23.32
2018-08-13T09:09:26.151Z,23.06
2018-08-13T09:11:54.388Z,23.14
2018-08-13T09:14:22.899Z,22.98
2018-08-13T09:16:52.133Z,22.99
2018-08-13T09:19:37.729Z,23.10
2018-08-13T09:22:23.481Z,22.80
2018-08-13T09:25:09.186Z,22.81
2018-08-13T09:27:54.627Z,23.02
2018-08-13T09:30:40.437Z,23.11
2018-08-13T09:33:25.719Z,23.33
2018-08-13T09:35:56.136Z,23.20
2018-08-13T09:38:24.928Z,23.41
2018-08-13T09:40:53.588Z,23.65
2018-08-13T09:43:22.188Z,23.64
2018-08-13T09:45:50.949Z,23.49
2018-08-13T09:48:19.276Z,23.58
2018-08-13T09:50:47.494Z,23.57
2018-08-13T09:53:15.709Z,23.46
2018-08-13T09:55:44.132Z,23.50
2018-08-13T09:58:12.452Z,23.54
2018-08-13T10:00:50.107Z,23.57
2018-08-13T10:03:18.327Z,23.95
2018-08-13T10:05:47.196Z,24.59
2018-08-13T10:08:15.496Z,24.80
2018-08-13T10:10:43.989Z,24.75
2018-08-13T10:13:12.279Z,24.89
2018-08-13T10:15:40.536Z,24.54
2018-08-13T10:18:09.003Z,24.48
2018-08-13T10:20:37.845Z,24.52
2018-08-13T10:23:06.040Z,24.65
2018-08-13T10:25:34.562Z,24.66
2018-08-13T10:28:02.803Z,24.43
2018-08-13T10:30:31.023Z,24.50
2018-08-13T10:32:59.365Z,24.40
2018-08-13T10:35:27.784Z,24.32
2018-08-13T10:37:56.249Z,24.46
2018-08-13T10:40:24.637Z,24.37
2018-08-13T10:42:53.596Z,24.69
2018-08-13T10:45:21.889Z,24.72
2018-08-13T10:47:50.107Z,24.82
2018-08-13T10:50:18.668Z,24.83
2018-08-13T10:52:47.158Z,24.78
2018-08-13T10:55:17.335Z,24.90
2018-08-13T10:57:45.489Z,24.90
2018-08-13T11:00:15.559Z,24.92
2018-08-13T11:02:43.812Z,24.81
2018-08-13T11:05:12.994Z,24.44
2018-08-13T11:07:41.894Z,24.46
2018-08-13T11:10:13.133Z,24.35
2018-08-13T11:12:41.474Z,24.50
2018-08-13T11:15:16.751Z,24.64
2018-08-13T11:17:45.580Z,24.38
2018-08-13T11:20:14.057Z,24.41
2018-08-13T11:22:42.645Z,24.44
2018-08-13T11:25:13.477Z,24.23
2018-08-13T11:27:42.119Z,24.25
2018-08-13T11:30:13.924Z,24.47
2018-08-13T11:32:42.497Z,24.57
2018-08-13T11:35:11.329Z,24.18
2018-08-13T11:37:40.272Z,24.26
2018-08-13T11:40:13.791Z,24.23
2018-08-13T11:42:42.928Z,24.22
2018-08-13T11:45:11.110Z,24.03
2018-08-13T11:47:40.095Z,24.05
2018-08-13T11:50:14.344Z,24.14
2018-08-13T11:52:43.800Z,24.28
2018-08-13T11:55:11.962Z,24.55
2018-08-13T11:57:40.158Z,24.58
2018-08-13T12:00:10.853Z,24.39
2018-08-13T12:02:39.822Z,24.45
2018-08-13T12:05:11.064Z,24.54
2018-08-13T12:07:39.509Z,24.36
2018-08-13T12:10:10.281Z,24.16
2018-08-13T12:12:39.439Z,24.27
2018-08-13T12:15:08.928Z,24.26
2018-08-13T12:17:37.096Z,24.37
2018-08-13T12:20:16.784Z,24.61
2018-08-13T12:22:45.854Z,24.29
2018-08-13T12:25:22.092Z,24.02
2018-08-13T12:27:50.307Z,23.90
2018-08-13T12:30:18.959Z,23.84
2018-08-13T12:32:48.632Z,24.24
2018-08-13T12:35:17.374Z,24.73
2018-08-13T12:37:45.557Z,24.95
2018-08-13T12:40:13.748Z,24.96
2018-08-13T12:42:42.008Z,25.10
2018-08-13T12:45:13.199Z,24.92
2018-08-13T12:47:41.808Z,25.12
2018-08-13T12:50:17.354Z,25.14
2018-08-13T12:52:46.977Z,24.77
2018-08-13T12:55:15.679Z,24.76
2018-08-13T12:57:44.200Z,24.82
2018-08-13T13:00:14.441Z,24.44
2018-08-13T13:02:43.058Z,24.45
2018-08-13T13:05:13.316Z,24.27
2018-08-13T13:07:42.019Z,24.14
2018-08-13T13:10:12.838Z,24.01
2018-08-13T13:12:41.643Z,24.23
2018-08-13T13:15:13.500Z,24.18
2018-08-13T13:17:41.827Z,24.44
2018-08-13T13:20:14.146Z,24.85
2018-08-13T13:22:43.514Z,24.95
2018-08-13T13:25:11.691Z,25.79
2018-08-13T13:27:39.899Z,26.38
2018-08-13T13:30:11.314Z,27.22
2018-08-13T13:32:39.489Z,27.91
2018-08-13T13:35:10.196Z,28.28
2018-08-13T13:37:39.104Z,28.17
2018-08-13T13:40:10.269Z,28.92
2018-08-13T13:42:38.805Z,28.97
2018-08-13T13:45:07.837Z,28.84
2018-08-13T13:47:36.415Z,28.97
2018-08-13T13:50:05.951Z,29.76
2018-08-13T13:52:34.374Z,30.10
2018-08-13T13:55:02.563Z,31.35
2018-08-13T13:57:31.201Z,32.39
2018-08-13T13:59:59.677Z,32.14
2018-08-13T14:02:27.816Z,30.99
2018-08-13T14:04:56.049Z,29.97
2018-08-13T14:07:26.112Z,29.87
2018-08-13T14:09:54.623Z,30.03
2018-08-13T14:12:23.423Z,29.99
2018-08-13T14:14:51.997Z,30.62
2018-08-13T14:17:20.530Z,29.79
2018-08-13T14:19:48.745Z,29.08
2018-08-13T14:22:17.381Z,28.75
2018-08-13T14:24:45.597Z,28.51
2018-08-13T14:27:13.841Z,28.08
2018-08-13T14:29:42.692Z,27.18
2018-08-13T14:32:10.948Z,26.52
2018-08-13T14:34:39.147Z,26.09
2018-08-13T14:37:08.017Z,25.98
2018-08-13T14:39:36.517Z,25.75
2018-08-13T14:42:05.090Z,25.42
2018-08-13T14:44:33.903Z,24.89
2018-08-13T14:47:02.502Z,24.30
2018-08-13T14:49:30.677Z,23.23
2018-08-13T14:51:59.111Z,22.59
2018-08-13T14:54:27.368Z,22.63
2018-08-13T14:56:55.842Z,22.36
2018-08-13T14:59:23.987Z,22.71
2018-08-13T15:01:52.266Z,24.31
2018-08-13T15:04:20.472Z,25.99
2018-08-13T15:06:49.074Z,26.56
2018-08-13T15:09:17.723Z,27.15
2018-08-13T15:11:46.068Z,28.64
2018-08-13T15:14:14.833Z,30.56
2018-08-13T15:16:43.327Z,30.36
2018-08-13T15:19:11.870Z,30.38
2018-08-13T15:21:40.381Z,29.60
2018-08-13T15:24:08.627Z,28.53
2018-08-13T15:26:36.916Z,27.37
2018-08-13T15:29:05.645Z,27.47
2018-08-13T15:31:34.101Z,27.90
2018-08-13T15:34:02.308Z,29.87
2018-08-13T15:36:30.523Z,31.51
2018-08-13T15:38:58.746Z,32.44
2018-08-13T15:41:26.928Z,33.67
2018-08-13T15:43:55.109Z,32.98
2018-08-13T15:46:24.774Z,33.71
2018-08-13T15:48:53.242Z,32.55
2018-08-13T15:51:21.936Z,30.58
2018-08-13T15:53:51.269Z,29.60
2018-08-13T15:56:19.811Z,27.95
2018-08-13T15:58:48.136Z,27.58
2018-08-13T16:01:16.280Z,26.59
2018-08-13T16:03:44.516Z,26.17
2018-08-13T16:06:12.692Z,25.72
2018-08-13T16:08:40.980Z,25.26
2018-08-13T16:11:09.195Z,24.77
2018-08-13T16:13:37.361Z,24.54
2018-08-13T16:16:05.867Z,24.39
2018-08-13T16:18:34.081Z,24.47
2018-08-13T16:21:02.369Z,24.25
2018-08-13T16:23:30.871Z,24.15
2018-08-13T16:25:59.421Z,23.73
2018-08-13T16:28:28.169Z,23.84
2018-08-13T16:30:57.062Z,24.04
2018-08-13T16:33:25.295Z,24.00
2018-08-13T16:35:53.473Z,23.56
2018-08-13T16:38:22.217Z,23.23
2018-08-13T16:40:51.149Z,23.00
2018-08-13T16:43:20.087Z,23.14
2018-08-13T16:45:48.699Z,23.11
2018-08-13T16:48:17.316Z,22.90
2018-08-13T16:50:45.569Z,23.14
2018-08-13T16:53:13.848Z,23.41
2018-08-13T16:55:42.383Z,23.50
2018-08-13T16:58:10.612Z,23.78
2018-08-13T17:00:38.800Z,23.78
2018-08-13T17:03:07.286Z,23.68
2018-08-13T17:05:35.482Z,24.38
2018-08-13T17:08:04.609Z,25.56
2018-08-13T17:10:32.766Z,26.33
2018-08-13T17:13:01.315Z,29.03
2018-08-13T17:15:31.553Z,31.43
2018-08-13T17:18:01.859Z,32.57
2018-08-13T17:20:35.373Z,31.27
2018-08-13T17:23:03.879Z,31.68
2018-08-13T17:25:32.112Z,32.51
2018-08-13T17:28:00.941Z,32.47
2018-08-13T17:30:29.202Z,31.69
2018-08-13T17:32:59.368Z,30.42
2018-08-13T17:35:31.416Z,28.24
2018-08-13T17:38:01.274Z,26.98
2018-08-13T17:40:31.343Z,25.93
2018-08-13T17:42:59.760Z,25.45
2018-08-13T17:45:27.801Z,25.16
2018-08-13T17:47:56.210Z,24.85
2018-08-13T17:50:25.384Z,24.60
2018-08-13T17:52:53.842Z,24.16
2018-08-13T17:55:22.685Z,23.86
2018-08-13T17:57:51.531Z,23.70
2018-08-13T18:00:23.801Z,23.66
2018-08-13T18:02:52.824Z,23.40
2018-08-13T18:05:23.549Z,23.24
2018-08-13T18:07:52.944Z,23.19
2018-08-13T18:10:31.802Z,22.98
2018-08-13T18:13:02.421Z,22.65
2018-08-13T18:15:31.288Z,22.59
2018-08-13T18:18:00.635Z,22.58
2018-08-13T18:20:29.252Z,22.52
2018-08-13T18:22:58.794Z,22.43
2018-08-13T18:25:27.385Z,22.55
2018-08-13T18:27:56.277Z,22.54
2018-08-13T18:30:27.318Z,22.56
2018-08-13T18:32:56.479Z,22.67
2018-08-13T18:35:24.884Z,22.62
2018-08-13T18:37:53.740Z,22.44
2018-08-13T18:40:26.920Z,22.35
2018-08-13T18:42:55.130Z,22.34
2018-08-13T18:45:23.594Z,22.28
2018-08-13T18:47:52.362Z,22.19
2018-08-13T18:50:21.968Z,22.13
2018-08-13T18:52:50.342Z,22.12
2018-08-13T18:55:21.032Z,22.21
2018-08-13T18:57:49.750Z,22.03
2018-08-13T19:00:22.282Z,22.00
2018-08-13T19:02:50.819Z,22.01
2018-08-13T19:05:20.326Z,22.11
2018-08-13T19:07:49.588Z,22.01
2018-08-13T19:10:19.350Z,22.14
2018-08-13T19:12:47.773Z,22.12
2018-08-13T19:15:19.796Z,21.98
2018-08-13T19:17:48.732Z,21.92
2018-08-13T19:20:16.969Z,21.90
2018-08-13T19:22:45.612Z,21.94
2018-08-13T19:25:20.750Z,21.94
2018-08-13T19:27:49.210Z,21.81
2018-08-13T19:30:18.489Z,21.73
2018-08-13T19:32:47.914Z,21.68
2018-08-13T19:35:16.334Z,21.61
2018-08-13T19:37:44.914Z,21.74
2018-08-13T19:40:17.676Z,21.74
2018-08-13T19:42:46.704Z,21.81
2018-08-13T19:45:16.585Z,21.69
2018-08-13T19:47:45.731Z,21.50
2018-08-13T19:50:14.435Z,21.49
2018-08-13T19:52:43.903Z,21.50
2018-08-13T19:55:12.774Z,21.61
2018-08-13T19:57:41.564Z,21.63
2018-08-13T20:00:15.855Z,21.66
2018-08-13T20:02:44.636Z,21.65
2018-08-13T20:05:13.001Z,21.73
2018-08-13T20:07:41.598Z,21.63
2018-08-13T20:10:11.874Z,21.52
2018-08-13T20:12:40.374Z,21.49
2018-08-13T20:15:09.386Z,21.50
2018-08-13T20:17:37.860Z,21.52
2018-08-13T20:20:09.150Z,21.48
2018-08-13T20:22:37.904Z,21.31
2018-08-13T20:25:07.759Z,21.31
2018-08-13T20:27:36.174Z,21.32
2018-08-13T20:30:07.120Z,21.26
2018-08-13T20:32:35.335Z,21.29
2018-08-13T20:35:03.744Z,21.21
2018-08-13T20:37:32.287Z,21.16
2018-08-13T20:40:00.603Z,21.05
2018-08-13T20:42:29.197Z,21.06
2018-08-13T20:44:57.418Z,21.18
2018-08-13T20:47:26.008Z,21.07
2018-08-13T20:49:54.221Z,20.95
2018-08-13T20:52:22.732Z,20.92
2018-08-13T20:54:51.249Z,20.85
2018-08-13T20:57:19.619Z,20.96
2018-08-13T20:59:48.102Z,21.02
2018-08-13T21:02:16.607Z,20.90
2018-08-13T21:04:44.835Z,20.98
2018-08-13T21:07:13.093Z,20.93
2018-08-13T21:09:41.568Z,21.03
2018-08-13T21:12:12.334Z,20.85
2018-08-13T21:14:41.009Z,20.92
2018-08-13T21:17:09.509Z,20.97
2018-08-13T21:19:37.942Z,20.95
2018-08-13T21:22:06.664Z,20.88
2018-08-13T21:24:38.820Z,20.98
2018-08-13T21:27:10.120Z,20.98
2018-08-13T21:29:38.616Z,20.90
2018-08-13T21:32:07.149Z,20.86
2018-08-13T21:34:35.405Z,20.79
2018-08-13T21:37:03.632Z,20.79
2018-08-13T21:39:31.945Z,20.80
2018-08-13T21:42:00.407Z,20.74
2018-08-13T21:44:28.585Z,20.72
2018-08-13T21:46:57.123Z,20.73
2018-08-13T21:49:25.302Z,20.69
2018-08-13T21:51:53.483Z,20.73
2018-08-13T21:54:21.627Z,20.74
2018-08-13T21:56:49.826Z,20.65
2018-08-13T21:59:18.330Z,20.65
2018-08-13T22:01:47.741Z,20.50
2018-08-13T22:04:17.211Z,20.52
2018-08-13T22:06:45.501Z,20.50
2018-08-13T22:09:13.690Z,20.49
2018-08-13T22:11:42.243Z,20.52
2018-08-13T22:14:10.544Z,20.38
2018-08-13T22:16:38.757Z,20.37
2018-08-13T22:19:07.994Z,20.36
2018-08-13T22:21:36.202Z,20.41
2018-08-13T22:24:21.682Z,20.48
2018-08-13T22:26:50.275Z,20.37
2018-08-13T22:29:18.560Z,20.35
2018-08-13T22:31:46.891Z,20.38
2018-08-13T22:34:15.090Z,20.37
2018-08-13T22:36:43.674Z,20.30
2018-08-13T22:39:11.897Z,20.17
2018-08-13T22:41:40.097Z,20.13
2018-08-13T22:44:08.313Z,20.03
2018-08-13T22:46:36.584Z,20.07
2018-08-13T22:49:04.940Z,19.94
2018-08-13T22:51:33.924Z,19.92
2018-08-13T22:54:02.280Z,19.85
2018-08-13T22:56:30.619Z,19.90
2018-08-13T22:58:59.384Z,19.87
2018-08-13T23:01:27.892Z,19.79
2018-08-13T23:03:56.497Z,19.88
2018-08-13T23:06:24.704Z,19.83
2018-08-13T23:08:52.975Z,19.87
2018-08-13T23:11:21.251Z,19.82
2018-08-13T23:13:49.647Z,19.71
2018-08-13T23:16:18.209Z,19.66
2018-08-13T23:18:46.507Z,19.67
2018-08-13T23:21:15.048Z,19.68
2018-08-13T23:23:43.660Z,19.63
2018-08-13T23:26:11.945Z,19.62
2018-08-13T23:28:41.325Z,19.62
2018-08-13T23:31:09.569Z,19.63
2018-08-13T23:33:38.204Z,19.66
2018-08-13T23:36:07.746Z,19.57
2018-08-13T23:38:36.008Z,19.52
2018-08-13T23:41:04.606Z,19.48
2018-08-13T23:43:33.275Z,19.36
2018-08-13T23:46:01.482Z,19.56
2018-08-13T23:48:30.898Z,19.52
2018-08-13T23:50:59.066Z,19.47
2018-08-13T23:53:27.305Z,19.44
2018-08-13T23:55:55.524Z,19.45
2018-08-13T23:58:23.761Z,19.43
